Time;durP1;ratioP1;P1;durP2;ratioP2;P2;SDS_P1;SDS_P2;PMS_P1;PMS_P2;Temp;Humidity;BMP_temperature;BMP_pressure;BME280_temperature;BME280_humidity;BME280_pressure;Samples;Min_cycle;Max_cycle;Signal;HPM_P1;HPM_P2
2022/05/25 00:02:24;;;;;;;0.50;0.50;;;12.00;78.40;;;;;;4975401;28;20082;-75
2022/05/25 00:04:53;;;;;;;0.75;0.70;;;12.00;78.50;;;;;;4994134;28;20042;-75
2022/05/25 00:07:20;;;;;;;0.63;0.63;;;11.90;78.50;;;;;;4960290;28;20053;-75
2022/05/25 00:09:46;;;;;;;1.23;0.98;;;11.90;78.60;;;;;;4975952;28;20050;-75
2022/05/25 00:12:13;;;;;;;0.77;0.77;;;11.90;78.50;;;;;;4993808;28;20093;-75
2022/05/25 00:14:39;;;;;;;0.70;0.70;;;11.90;78.50;;;;;;4975297;28;20050;-75
2022/05/25 00:17:05;;;;;;;1.23;0.93;;;11.90;78.50;;;;;;4993670;28;20515;-75
2022/05/25 00:22:10;;;;;;;0.50;0.50;;;12.00;78.70;;;;;;4978393;28;20124;-75
2022/05/25 00:24:36;;;;;;;0.75;0.60;;;11.90;78.70;;;;;;4960047;28;20078;-75
2022/05/25 00:27:02;;;;;;;0.80;0.77;;;11.80;78.70;;;;;;4993481;28;20166;-75
2022/05/25 00:29:28;;;;;;;0.75;0.70;;;11.80;78.70;;;;;;4980384;28;20046;-75
2022/05/25 00:31:54;;;;;;;0.57;0.57;;;11.90;78.90;;;;;;4993636;28;20116;-75
2022/05/25 00:34:20;;;;;;;1.20;0.90;;;11.80;78.80;;;;;;4975615;28;20136;-75
2022/05/25 00:36:45;;;;;;;0.88;0.80;;;11.80;79.00;;;;;;4993452;28;20396;-75
2022/05/25 00:39:11;;;;;;;0.95;0.73;;;11.80;79.10;;;;;;4958454;28;20525;-75
2022/05/25 00:41:37;;;;;;;0.68;0.60;;;11.80;79.00;;;;;;4976496;28;20464;-75
2022/05/25 00:44:04;;;;;;;1.10;0.70;;;11.80;79.00;;;;;;4959254;28;20046;-75
2022/05/25 00:46:32;;;;;;;0.63;0.63;;;11.80;79.10;;;;;;4984199;28;20519;-75
2022/05/25 00:49:04;;;;;;;0.60;0.60;;;11.70;79.10;;;;;;4994497;28;20035;-75
2022/05/25 00:51:37;;;;;;;0.73;0.73;;;11.70;79.30;;;;;;4993344;28;20039;-75
2022/05/25 00:54:08;;;;;;;1.10;0.80;;;11.70;79.40;;;;;;4993642;28;20069;-75
2022/05/25 00:56:39;;;;;;;0.70;0.60;;;11.70;79.50;;;;;;4993471;28;20042;-75
2022/05/25 00:59:12;;;;;;;0.50;0.50;;;11.60;79.40;;;;;;4993441;28;20038;-75
2022/05/25 01:01:38;;;;;;;0.80;0.70;;;11.60;79.50;;;;;;4993572;28;20276;-74
2022/05/25 01:04:04;;;;;;;0.77;0.65;;;11.60;79.50;;;;;;4975834;28;20043;-74
2022/05/25 01:06:49;;;;;;;0.98;0.93;;;11.60;79.40;;;;;;4975706;28;20481;-74
2022/05/25 01:09:28;;;;;;;1.20;0.70;;;11.60;79.50;;;;;;4993871;28;20053;-74
2022/05/25 01:12:14;;;;;;;1.00;0.88;;;11.50;79.50;;;;;;4976374;28;20082;-74
2022/05/25 01:15:10;;;;;;;0.70;0.70;;;11.60;79.60;;;;;;4993682;28;20088;-74
2022/05/25 01:17:49;;;;;;;1.15;0.70;;;11.60;79.60;;;;;;4976758;28;20062;-74
2022/05/25 01:20:30;;;;;;;1.05;0.90;;;11.60;79.60;;;;;;4994954;28;20049;-74
2022/05/25 01:23:26;;;;;;;0.80;0.80;;;11.60;79.60;;;;;;4978193;28;20091;-74
2022/05/25 01:26:17;;;;;;;0.80;0.70;;;11.50;79.60;;;;;;4980622;28;20468;-74
2022/05/25 01:29:13;;;;;;;0.88;0.60;;;11.60;79.60;;;;;;4993826;28;20046;-74
2022/05/25 01:31:56;;;;;;;0.60;0.60;;;11.50;79.60;;;;;;4992598;28;20484;-74
2022/05/25 01:34:41;;;;;;;0.68;0.60;;;11.50;79.60;;;;;;4992711;28;20042;-75
2022/05/25 01:37:22;;;;;;;0.90;0.80;;;11.50;79.60;;;;;;4992692;28;20051;-74
2022/05/25 01:39:58;;;;;;;0.50;0.50;;;11.50;79.70;;;;;;4993130;28;20026;-75
2022/05/25 01:42:30;;;;;;;0.60;0.60;;;11.50;79.70;;;;;;4992649;28;20035;-75
2022/05/25 01:45:01;;;;;;;0.40;0.40;;;11.40;79.70;;;;;;4993425;28;20074;-74
2022/05/25 01:47:30;;;;;;;0.98;0.60;;;11.50;79.80;;;;;;4993297;28;20048;-74
2022/05/25 01:50:18;;;;;;;1.05;0.68;;;11.40;79.70;;;;;;4975248;28;20125;-75
2022/05/25 01:52:52;;;;;;;0.60;0.60;;;11.40;79.90;;;;;;4973920;28;20057;-75
2022/05/25 01:55:24;;;;;;;0.70;0.70;;;11.40;79.90;;;;;;4981070;28;20122;-75
2022/05/25 01:57:55;;;;;;;0.57;0.57;;;11.50;80.00;;;;;;4991606;28;20042;-75
2022/05/25 02:00:33;;;;;;;1.05;0.77;;;11.40;80.00;;;;;;4974937;28;20046;-75
2022/05/25 02:05:51;;;;;;;0.57;0.57;;;11.30;80.10;;;;;;4992248;28;20050;-74
2022/05/25 02:08:35;;;;;;;0.50;0.50;;;11.20;80.10;;;;;;4990928;28;20038;-73
2022/05/25 02:11:15;;;;;;;0.75;0.60;;;11.30;80.30;;;;;;4992036;28;20571;-73
2022/05/25 02:14:03;;;;;;;0.65;0.65;;;11.30;80.30;;;;;;4992059;28;20165;-73
2022/05/25 02:16:45;;;;;;;0.63;0.50;;;11.20;80.20;;;;;;4991772;28;20690;-74
2022/05/25 02:19:22;;;;;;;0.50;0.50;;;11.20;80.20;;;;;;4992299;28;20524;-74
2022/05/25 02:21:57;;;;;;;0.57;0.57;;;11.20;80.20;;;;;;4974452;28;20039;-74
2022/05/25 02:24:40;;;;;;;0.65;0.50;;;11.20;80.20;;;;;;4992190;28;20045;-74
2022/05/25 02:27:15;;;;;;;0.52;0.52;;;11.20;80.30;;;;;;4992146;28;20476;-74
2022/05/25 02:29:45;;;;;;;0.57;0.57;;;11.20;80.30;;;;;;4991892;28;20481;-74
2022/05/25 02:32:20;;;;;;;1.00;0.70;;;11.10;80.30;;;;;;4991772;28;20046;-74
2022/05/25 02:34:49;;;;;;;0.80;0.65;;;11.10;80.40;;;;;;4991703;28;20047;-74
2022/05/25 02:37:18;;;;;;;0.73;0.65;;;11.10;80.50;;;;;;4991848;28;20051;-73
2022/05/25 02:39:44;;;;;;;0.70;0.52;;;11.00;80.50;;;;;;4973337;28;20393;-74
2022/05/25 02:42:15;;;;;;;0.70;0.70;;;11.00;80.50;;;;;;4991676;28;20065;-74
2022/05/25 02:44:42;;;;;;;;;;;11.00;80.60;;;;;;4991986;28;20042;-73
2022/05/25 02:47:08;;;;;;;0.88;0.63;;;10.90;80.50;;;;;;4991428;28;19914;-74
2022/05/25 02:49:35;;;;;;;1.10;0.70;;;10.80;80.50;;;;;;4974209;28;20069;-74
2022/05/25 02:52:00;;;;;;;0.60;0.60;;;10.80;80.60;;;;;;4991488;28;20050;-74
2022/05/25 02:54:26;;;;;;;0.65;0.57;;;10.80;80.60;;;;;;4991810;28;20073;-74
2022/05/25 02:56:52;;;;;;;0.70;0.52;;;10.80;80.70;;;;;;4991366;28;20093;-74
2022/05/25 02:59:19;;;;;;;0.77;0.60;;;10.80;80.70;;;;;;4991313;28;20046;-73
2022/05/25 03:01:44;;;;;;;0.50;0.50;;;10.70;80.80;;;;;;4991360;28;20197;-74
2022/05/25 03:04:10;;;;;;;0.70;0.40;;;10.70;80.90;;;;;;4991961;28;20568;-73
2022/05/25 03:06:36;;;;;;;0.65;0.50;;;10.70;81.00;;;;;;4991561;28;20050;-74
2022/05/25 03:09:02;;;;;;;0.60;0.55;;;10.70;81.00;;;;;;4991789;28;20039;-74
2022/05/25 03:11:28;;;;;;;0.80;0.65;;;10.70;81.10;;;;;;4991589;28;20062;-74
2022/05/25 03:13:54;;;;;;;0.80;0.43;;;10.70;81.10;;;;;;4973927;28;20042;-74
2022/05/25 03:16:20;;;;;;;0.52;0.52;;;10.60;81.10;;;;;;4973534;28;20066;-74
2022/05/25 03:18:47;;;;;;;0.73;0.73;;;10.60;81.20;;;;;;4991727;28;20092;-73
2022/05/25 03:21:13;;;;;;;0.60;0.60;;;10.60;81.20;;;;;;4956483;28;20035;-74
2022/05/25 03:23:39;;;;;;;0.50;0.50;;;10.60;81.20;;;;;;4973634;28;20086;-74
2022/05/25 03:26:05;;;;;;;1.15;0.70;;;10.50;81.20;;;;;;4973716;28;20042;-74
2022/05/25 03:28:31;;;;;;;0.65;0.65;;;10.50;81.30;;;;;;4991156;28;20114;-74
2022/05/25 03:30:57;;;;;;;0.50;0.50;;;10.50;81.30;;;;;;4991714;28;20137;-74
2022/05/25 03:33:23;;;;;;;1.48;0.75;;;10.50;81.30;;;;;;4991020;28;20088;-74
2022/05/25 03:35:48;;;;;;;1.27;0.85;;;10.50;81.30;;;;;;4991490;28;20073;-74
2022/05/25 03:38:14;;;;;;;0.80;0.70;;;10.50;81.30;;;;;;4972230;28;20047;-74
2022/05/25 03:40:40;;;;;;;0.95;0.60;;;10.50;81.20;;;;;;4991207;28;20480;-74
2022/05/25 03:43:08;;;;;;;0.68;0.60;;;10.50;81.20;;;;;;4991181;28;20456;-74
2022/05/25 03:45:34;;;;;;;0.50;0.50;;;10.50;81.20;;;;;;4991137;28;20425;-74
2022/05/25 03:48:00;;;;;;;0.77;0.70;;;10.50;81.20;;;;;;4972132;28;20062;-74
2022/05/25 03:50:26;;;;;;;1.27;0.70;;;10.50;81.20;;;;;;4991484;28;20074;-74
2022/05/25 03:52:52;;;;;;;0.82;0.70;;;10.50;81.20;;;;;;4973775;28;20077;-73
2022/05/25 03:55:19;;;;;;;0.80;0.70;;;10.50;81.20;;;;;;4993197;28;20085;-74
2022/05/25 03:57:44;;;;;;;1.08;0.85;;;10.60;81.30;;;;;;4994111;28;20404;-74
2022/05/25 04:00:11;;;;;;;0.70;0.60;;;10.60;81.10;;;;;;4994658;28;20914;-74
2022/05/25 04:02:37;;;;;;;0.88;0.80;;;10.80;81.10;;;;;;4994004;28;20049;-74
2022/05/25 04:05:11;;;;;;;1.13;0.80;;;10.70;81.00;;;;;;4994827;28;20043;-74
2022/05/25 04:07:41;;;;;;;1.38;0.85;;;10.70;80.90;;;;;;4993056;28;20035;-74
2022/05/25 04:10:11;;;;;;;0.75;0.65;;;10.80;80.90;;;;;;4994392;28;20034;-73
2022/05/25 04:12:36;;;;;;;0.70;0.70;;;10.80;80.80;;;;;;4959877;28;20045;-74
2022/05/25 04:15:03;;;;;;;0.85;0.60;;;10.80;80.70;;;;;;4974942;28;20416;-74
2022/05/25 04:17:31;;;;;;;0.93;0.90;;;10.80;80.70;;;;;;4994202;28;20053;-74
2022/05/25 04:19:57;;;;;;;0.80;0.80;;;10.80;80.70;;;;;;4994128;28;20034;-74
2022/05/25 04:22:23;;;;;;;1.77;0.93;;;10.80;80.70;;;;;;4993864;28;20117;-73
2022/05/25 04:24:49;;;;;;;1.00;0.90;;;10.80;80.60;;;;;;4994271;28;20066;-74
2022/05/25 04:27:15;;;;;;;1.00;0.77;;;10.90;80.70;;;;;;4993880;28;20070;-74
2022/05/25 04:29:40;;;;;;;1.35;0.90;;;10.90;80.70;;;;;;4993779;28;20100;-74
2022/05/25 04:32:06;;;;;;;1.63;1.00;;;11.00;80.70;;;;;;4975123;28;20047;-73
2022/05/25 04:34:32;;;;;;;1.95;1.08;;;10.90;80.60;;;;;;4976347;28;20599;-74
2022/05/25 04:37:48;;;;;;;1.33;1.00;;;11.10;80.70;;;;;;4994054;28;20241;-75
2022/05/25 04:39:44;;;;;;;1.15;0.95;;;11.00;80.60;;;;;;4993391;28;20058;-74
2022/05/25 04:42:10;;;;;;;1.27;0.98;;;11.00;80.60;;;;;;4993810;28;20093;-73
2022/05/25 04:44:36;;;;;;;1.73;1.00;;;11.00;80.60;;;;;;4994313;28;20042;-73
2022/05/25 04:47:02;;;;;;;2.67;1.40;;;11.00;80.60;;;;;;4993757;28;20451;-75
2022/05/25 04:49:28;;;;;;;1.63;1.08;;;11.10;80.60;;;;;;4993318;28;20047;-74
2022/05/25 04:51:54;;;;;;;2.55;1.10;;;11.10;80.60;;;;;;4994030;28;20046;-74
2022/05/25 04:54:19;;;;;;;3.80;1.35;;;11.10;80.60;;;;;;4976624;28;20109;-73
2022/05/25 04:59:24;;;;;;;1.15;1.05;;;11.20;80.70;;;;;;4978244;28;20615;-74
2022/05/25 05:01:51;;;;;;;1.02;0.90;;;11.20;80.60;;;;;;4993394;28;20125;-74
2022/05/25 05:04:16;;;;;;;1.65;1.10;;;11.20;80.60;;;;;;4993319;28;20050;-74
2022/05/25 05:06:44;;;;;;;2.10;1.35;;;11.30;80.60;;;;;;4974011;28;20031;-74
2022/05/25 05:09:11;;;;;;;1.98;1.00;;;11.30;80.50;;;;;;4976663;28;20038;-73
2022/05/25 05:11:37;;;;;;;1.73;1.30;;;11.30;80.50;;;;;;4975850;28;20070;-74
2022/05/25 05:14:03;;;;;;;1.50;1.30;;;11.40;80.50;;;;;;4993670;28;20054;-73
2022/05/25 05:16:29;;;;;;;1.67;1.15;;;11.40;80.40;;;;;;4974878;28;20094;-74
2022/05/25 05:18:55;;;;;;;1.70;1.30;;;11.50;80.40;;;;;;4976451;28;20042;-75
2022/05/25 05:21:21;;;;;;;4.25;1.30;;;11.50;80.30;;;;;;4993153;28;20117;-76
2022/05/25 05:23:50;;;;;;;2.28;1.30;;;11.60;80.30;;;;;;4984469;28;20050;-76
2022/05/25 05:26:16;;;;;;;1.38;1.10;;;11.60;80.20;;;;;;4992940;28;20129;-75
2022/05/25 05:28:42;;;;;;;1.35;1.10;;;11.70;80.20;;;;;;5007772;28;20042;-74
2022/05/25 05:31:09;;;;;;;1.13;0.80;;;11.70;80.30;;;;;;4991661;28;20114;-74
2022/05/25 05:33:36;;;;;;;1.05;0.93;;;11.80;80.20;;;;;;5008238;28;20078;-75
2022/05/25 05:36:15;;;;;;;1.08;0.98;;;11.80;80.10;;;;;;4976679;28;20038;-74
2022/05/25 05:38:49;;;;;;;2.10;1.10;;;11.90;80.10;;;;;;5009815;28;20042;-75
2022/05/25 05:41:16;;;;;;;0.57;0.57;;;11.90;80.00;;;;;;5006865;28;20129;-74
2022/05/25 05:43:42;;;;;;;1.05;0.95;;;11.90;79.90;;;;;;5010839;28;20053;-75
2022/05/25 05:46:09;;;;;;;1.58;1.05;;;11.90;79.80;;;;;;5008402;28;20046;-75
2022/05/25 05:48:36;;;;;;;1.40;1.10;;;12.00;80.00;;;;;;5008418;28;20081;-74
2022/05/25 05:51:04;;;;;;;1.25;0.98;;;11.90;80.00;;;;;;4988354;28;20138;-75
2022/05/25 05:53:31;;;;;;;1.15;0.80;;;12.00;80.10;;;;;;5006185;28;20102;-74
2022/05/25 05:56:00;;;;;;;1.45;1.10;;;12.00;80.10;;;;;;4976501;28;20089;-75
2022/05/25 05:58:25;;;;;;;1.88;1.10;;;12.10;80.10;;;;;;4993755;28;20134;-75
2022/05/25 06:00:51;;;;;;;1.90;1.05;;;12.10;80.10;;;;;;5004822;28;20050;-75
2022/05/25 06:03:18;;;;;;;1.05;0.82;;;12.10;80.10;;;;;;5004537;28;20070;-74
2022/05/25 06:05:46;;;;;;;1.05;0.77;;;12.30;80.70;;;;;;4995476;28;20078;-74
2022/05/25 06:08:15;;;;;;;1.90;1.20;;;12.20;80.10;;;;;;5000331;28;20137;-75
2022/05/25 06:10:42;;;;;;;1.15;1.00;;;12.30;80.10;;;;;;4983008;28;20038;-74
2022/05/25 06:13:08;;;;;;;1.73;1.05;;;12.30;80.00;;;;;;5003492;28;20046;-75
2022/05/25 06:20:54;;;;;;;1.35;1.10;;;12.40;79.90;;;;;;4992279;28;20037;-75
2022/05/25 06:23:20;;;;;;;1.48;1.13;;;12.40;80.40;;;;;;4974975;28;20035;-75
2022/05/25 06:25:45;;;;;;;1.17;0.90;;;12.50;79.90;;;;;;4975047;28;20030;-74
2022/05/25 06:28:11;;;;;;;0.85;0.73;;;12.60;80.40;;;;;;4991939;28;20034;-74
2022/05/25 06:30:37;;;;;;;1.58;1.10;;;12.60;79.60;;;;;;4992300;28;20034;-74
2022/05/25 06:33:05;;;;;;;1.88;1.10;;;12.70;79.50;;;;;;4996024;28;20031;-75
2022/05/25 06:35:33;;;;;;;1.02;0.85;;;12.80;79.40;;;;;;4945520;28;20077;-74
2022/05/25 06:37:58;;;;;;;1.33;1.15;;;12.90;79.30;;;;;;4942414;28;20468;-74
2022/05/25 06:40:25;;;;;;;1.38;0.90;;;13.00;79.20;;;;;;4992296;28;20038;-74
2022/05/25 06:42:51;;;;;;;1.10;1.00;;;13.10;79.10;;;;;;4958682;28;20030;-75
2022/05/25 06:45:18;;;;;;;0.60;0.60;;;13.20;78.90;;;;;;4992138;28;20118;-74
2022/05/25 06:47:44;;;;;;;0.82;0.82;;;13.40;78.80;;;;;;4993612;28;20069;-75
2022/05/25 06:50:17;;;;;;;1.73;0.95;;;13.50;78.60;;;;;;4983911;28;20035;-76
2022/05/25 06:52:43;;;;;;;1.52;1.00;;;13.70;78.40;;;;;;4959108;28;20043;-75
2022/05/25 06:55:15;;;;;;;1.65;0.80;;;13.90;78.20;;;;;;4958673;28;20038;-77
2022/05/25 06:57:44;;;;;;;1.20;0.95;;;14.00;78.00;;;;;;4974632;28;20046;-78
2022/05/25 07:00:10;;;;;;;1.20;1.10;;;14.10;77.70;;;;;;4958386;28;20039;-78
2022/05/25 07:02:36;;;;;;;1.73;1.30;;;14.30;77.60;;;;;;4953890;28;20129;-76
2022/05/25 07:05:05;;;;;;;2.15;1.20;;;14.30;77.50;;;;;;4955977;28;20571;-76
2022/05/25 07:07:31;;;;;;;1.42;1.05;;;14.40;77.60;;;;;;4949231;29;20042;-76
2022/05/25 07:09:57;;;;;;;1.80;0.98;;;14.50;77.50;;;;;;4934565;29;20035;-77
2022/05/25 07:12:23;;;;;;;1.25;0.93;;;14.50;77.30;;;;;;4950922;29;20091;-76
2022/05/25 07:14:49;;;;;;;1.23;1.02;;;14.80;77.20;;;;;;4951248;29;20067;-76
2022/05/25 07:17:14;;;;;;;1.27;0.90;;;15.00;77.10;;;;;;4951243;29;20147;-78
2022/05/25 07:19:40;;;;;;;1.65;1.00;;;15.20;76.90;;;;;;4934508;29;20171;-75
2022/05/25 07:22:11;;;;;;;1.08;0.90;;;15.30;76.80;;;;;;4919502;29;20568;-78
2022/05/25 07:24:37;;;;;;;;;;;15.30;76.60;;;;;;4956413;29;20039;-76
2022/05/25 07:27:04;;;;;;;1.85;1.30;;;15.40;76.50;;;;;;4955457;29;19966;-76
2022/05/25 07:29:29;;;;;;;1.50;1.17;;;15.40;76.50;;;;;;4937993;29;20039;-75
2022/05/25 07:32:01;;;;;;;1.00;0.90;;;15.50;76.50;;;;;;4956598;29;20362;-76
2022/05/25 07:34:34;;;;;;;1.50;1.20;;;15.60;76.50;;;;;;4959864;28;20050;-78
2022/05/25 07:37:04;;;;;;;1.73;1.10;;;15.80;76.20;;;;;;4954923;28;20540;-75
2022/05/25 07:39:39;;;;;;;1.50;1.15;;;15.70;75.90;;;;;;4985347;28;20067;-77
2022/05/25 07:42:06;;;;;;;2.10;1.25;;;15.70;76.20;;;;;;4961780;28;20493;-77
2022/05/25 07:44:53;;;;;;;2.08;1.15;;;15.80;76.40;;;;;;4974143;28;20039;-79
2022/05/25 07:47:19;;;;;;;1.35;0.90;;;15.70;76.40;;;;;;4957983;28;20559;-77
2022/05/25 07:49:45;;;;;;;2.97;1.10;;;15.70;76.60;;;;;;4956340;28;20097;-77
2022/05/25 07:52:11;;;;;;;2.15;0.93;;;15.80;76.70;;;;;;4940969;28;20111;-77
2022/05/25 07:54:45;;;;;;;1.73;1.10;;;16.00;76.70;;;;;;4973399;28;20065;-78
2022/05/25 07:57:17;;;;;;;1.60;1.30;;;16.20;76.40;;;;;;4953013;29;20055;-79
2022/05/25 07:59:43;;;;;;;2.38;1.42;;;16.20;76.20;;;;;;4906546;29;20027;-77
2022/05/25 08:07:37;;;;;;;1.60;1.20;;;16.70;75.40;;;;;;4939664;29;20047;-78
2022/05/25 08:10:10;;;;;;;2.92;1.70;;;16.70;75.10;;;;;;4921570;29;20039;-77
2022/05/25 08:12:39;;;;;;;1.80;1.60;;;16.70;75.30;;;;;;4922101;29;20070;-79
2022/05/25 08:15:07;;;;;;;3.22;1.60;;;16.70;75.60;;;;;;4925173;29;20091;-78
2022/05/25 08:17:34;;;;;;;1.92;1.65;;;16.70;75.70;;;;;;4935493;29;20122;-77
2022/05/25 08:20:06;;;;;;;2.70;1.80;;;16.80;75.60;;;;;;4955411;29;20046;-77
2022/05/25 08:22:33;;;;;;;2.13;1.38;;;17.00;75.10;;;;;;4937778;29;20035;-76
2022/05/25 08:24:59;;;;;;;1.20;1.10;;;17.00;74.80;;;;;;4952984;28;20051;-77
2022/05/25 08:27:25;;;;;;;1.60;1.50;;;17.00;75.10;;;;;;4936897;29;20039;-78
2022/05/25 08:29:51;;;;;;;2.78;1.48;;;16.90;75.30;;;;;;4936488;29;20035;-78
2022/05/25 08:32:16;;;;;;;1.98;1.30;;;16.90;75.30;;;;;;4952924;28;20041;-77
2022/05/25 08:34:43;;;;;;;2.80;1.83;;;16.80;75.50;;;;;;4936975;29;20449;-77
2022/05/25 08:37:10;;;;;;;2.88;1.63;;;16.80;75.50;;;;;;4953214;29;20062;-76
2022/05/25 08:39:36;;;;;;;1.73;1.63;;;16.80;75.60;;;;;;4937789;29;20036;-77
2022/05/25 08:42:12;;;;;;;2.17;1.80;;;16.80;75.80;;;;;;4953643;28;20037;-77
2022/05/25 08:44:41;;;;;;;3.38;2.17;;;16.80;75.70;;;;;;4898448;29;20071;-78
2022/05/25 08:47:08;;;;;;;3.15;2.10;;;16.90;75.70;;;;;;4921115;29;20067;-76
2022/05/25 08:49:35;;;;;;;2.28;1.60;;;17.00;75.30;;;;;;4952814;28;20043;-77
2022/05/25 08:52:04;;;;;;;1.60;1.50;;;17.00;75.20;;;;;;4952755;29;20047;-76
2022/05/25 08:54:31;;;;;;;1.90;1.55;;;17.10;75.10;;;;;;4936666;29;20043;-76
2022/05/25 08:57:03;;;;;;;2.28;1.75;;;17.20;75.00;;;;;;4920832;29;20047;-78
2022/05/25 08:59:36;;;;;;;1.70;1.60;;;17.40;74.80;;;;;;4937228;29;20035;-79
2022/05/25 09:02:42;;;;;;;2.35;1.45;;;17.50;74.50;;;;;;4952782;29;20114;-77
2022/05/25 09:05:27;;;;;;;2.85;2.05;;;17.70;73.90;;;;;;4928935;29;20032;-76
2022/05/25 09:08:29;;;;;;;2.92;2.00;;;17.90;73.70;;;;;;4922699;29;20039;-77
2022/05/25 09:11:02;;;;;;;3.40;2.53;;;18.00;73.30;;;;;;4953734;29;20109;-79
2022/05/25 09:13:37;;;;;;;3.38;2.00;;;18.10;73.10;;;;;;4952703;29;20184;-77
2022/05/25 09:19:08;;;;;;;1.85;1.60;;;18.10;73.20;;;;;;4964558;28;20042;-78
2022/05/25 09:21:40;;;;;;;2.97;2.35;;;18.30;73.00;;;;;;4995743;28;20500;-79
2022/05/25 09:24:12;;;;;;;2.53;1.95;;;18.30;72.90;;;;;;4962385;28;20041;-79
2022/05/25 09:26:39;;;;;;;2.90;2.35;;;18.40;72.90;;;;;;4959477;28;20492;-77
2022/05/25 09:29:07;;;;;;;3.72;2.47;;;18.30;72.60;;;;;;4959749;28;20042;-78
2022/05/25 09:31:50;;;;;;;3.58;2.50;;;18.50;72.80;;;;;;4993631;28;20039;-82
2022/05/25 09:34:37;;;;;;;3.80;2.63;;;18.50;72.50;;;;;;4977354;28;20060;-77
2022/05/25 09:37:12;;;;;;;4.38;3.03;;;18.50;72.70;;;;;;4976642;28;20065;-78
2022/05/25 09:39:43;;;;;;;4.07;2.75;;;18.60;72.50;;;;;;4975489;28;20037;-78
2022/05/25 09:42:13;;;;;;;5.55;3.50;;;18.80;72.30;;;;;;4976064;28;20121;-78
2022/05/25 09:44:39;;;;;;;4.40;3.00;;;18.90;71.90;;;;;;4959357;28;20035;-78
2022/05/25 09:47:14;;;;;;;3.65;2.65;;;18.90;72.00;;;;;;4992654;28;20093;-78
2022/05/25 09:49:47;;;;;;;3.42;2.58;;;18.80;72.30;;;;;;4978957;28;20047;-77
2022/05/25 09:52:20;;;;;;;4.03;3.00;;;18.60;72.70;;;;;;4978583;28;20125;-77
2022/05/25 09:54:56;;;;;;;3.85;2.92;;;18.70;72.70;;;;;;4993769;28;20050;-79
2022/05/25 09:57:30;;;;;;;3.40;2.80;;;18.70;72.70;;;;;;4974880;28;20058;-76
2022/05/25 10:00:00;;;;;;;3.80;3.00;;;18.70;72.80;;;;;;4975304;28;20168;-77
2022/05/25 10:02:42;;;;;;;5.07;3.58;;;18.90;72.80;;;;;;4975270;28;20039;-77
2022/05/25 10:05:23;;;;;;;4.93;3.47;;;19.10;72.20;;;;;;4975311;28;20034;-76
2022/05/25 10:07:52;;;;;;;;;;;19.30;71.50;;;;;;4993373;28;20042;-77
2022/05/25 10:10:35;;;;;;;5.07;3.15;;;19.50;71.30;;;;;;4975422;28;19912;-77
2022/05/25 10:13:12;;;;;;;4.32;3.40;;;19.40;71.00;;;;;;4991249;28;20034;-78
2022/05/25 10:15:37;;;;;;;5.70;4.03;;;19.20;71.00;;;;;;4943941;28;20392;-77
2022/05/25 10:18:04;;;;;;;5.15;3.95;;;19.10;71.30;;;;;;4992397;28;20153;-79
2022/05/25 10:20:44;;;;;;;4.55;3.70;;;19.00;71.40;;;;;;4974872;28;20029;-78
2022/05/25 10:23:19;;;;;;;4.18;3.38;;;19.00;71.30;;;;;;4976457;28;20035;-78
2022/05/25 10:26:08;;;;;;;4.15;3.05;;;19.10;71.40;;;;;;4974787;28;20034;-78
2022/05/25 10:28:43;;;;;;;3.40;2.80;;;19.40;70.80;;;;;;4970143;28;20077;-79
2022/05/25 10:37:12;;;;;;;3.90;2.60;;;19.60;69.10;;;;;;4970481;28;20081;-80
2022/05/25 10:39:45;;;;;;;2.85;2.25;;;19.40;69.30;;;;;;4970992;28;20039;-79
2022/05/25 10:42:26;;;;;;;4.25;2.30;;;19.10;69.80;;;;;;4970646;28;20031;-78
2022/05/25 10:45:14;;;;;;;2.40;2.00;;;18.90;70.40;;;;;;4971971;28;20057;-79
2022/05/25 10:48:10;;;;;;;3.22;2.20;;;18.70;71.50;;;;;;4954723;28;20592;-77
2022/05/25 10:50:46;;;;;;;1.88;1.70;;;18.60;71.00;;;;;;4971621;28;20038;-77
2022/05/25 10:53:29;;;;;;;3.13;1.70;;;18.60;71.20;;;;;;4984685;28;20038;-78
2022/05/25 10:56:16;;;;;;;1.80;1.63;;;18.60;71.10;;;;;;4992602;28;20043;-78
2022/05/25 10:59:10;;;;;;;1.88;1.55;;;18.50;71.00;;;;;;4992447;28;20133;-79
2022/05/25 11:01:57;;;;;;;1.95;1.52;;;18.40;71.20;;;;;;4976449;28;20437;-79
2022/05/25 11:04:52;;;;;;;2.15;1.80;;;18.30;71.30;;;;;;4993252;28;20113;-80
2022/05/25 11:07:33;;;;;;;1.88;1.58;;;18.10;71.40;;;;;;4962076;28;20066;-79
2022/05/25 11:10:24;;;;;;;2.10;1.58;;;18.00;71.90;;;;;;4978754;28;20038;-79
2022/05/25 11:13:21;;;;;;;1.77;1.30;;;17.90;72.10;;;;;;4977470;28;20046;-79
2022/05/25 11:16:31;;;;;;;1.00;1.00;;;18.00;72.00;;;;;;4938474;29;20062;-78
2022/05/25 11:19:21;;;;;;;1.67;1.25;;;18.20;71.50;;;;;;4954522;29;20046;-79
2022/05/25 11:22:00;;;;;;;0.73;0.73;;;18.50;71.00;;;;;;4938191;29;20489;-78
2022/05/25 11:25:06;;;;;;;0.95;0.95;;;18.70;70.40;;;;;;4939291;29;20070;-83
2022/05/25 11:28:21;;;;;;;0.70;0.70;;;18.70;69.80;;;;;;4927663;29;20502;-85
2022/05/25 11:34:23;;;;;;;1.00;1.00;;;19.30;68.80;;;;;;4958171;29;20110;-78
2022/05/25 11:37:17;;;;;;;0.90;0.90;;;19.50;67.90;;;;;;4957403;29;20055;-81
2022/05/25 11:40:13;;;;;;;1.60;1.02;;;19.20;67.40;;;;;;4956466;29;20058;-80
2022/05/25 11:43:13;;;;;;;0.70;0.70;;;19.00;67.80;;;;;;4946646;29;20583;-78
2022/05/25 11:46:13;;;;;;;0.65;0.65;;;18.80;68.20;;;;;;4955083;29;20390;-78
2022/05/25 11:49:15;;;;;;;0.50;0.50;;;18.60;68.40;;;;;;4939891;28;20493;-79
2022/05/25 11:52:12;;;;;;;0.80;0.80;;;18.70;68.50;;;;;;4995938;28;20088;-80
2022/05/25 11:55:13;;;;;;;0.70;0.70;;;18.60;68.40;;;;;;4964055;28;20038;-81
2022/05/25 12:12:09;;;;;;;1.33;0.90;;;19.40;65.40;;;;;;4732189;30;20408;-81
2022/05/25 12:15:39;;;;;;;0.95;0.80;;;19.50;65.70;;;;;;4716435;30;20109;-86
2022/05/25 12:23:07;;;;;;;0.80;0.80;;;19.90;64.30;;;;;;4662587;30;20058;-83
2022/05/25 12:26:03;;;;;;;0.85;0.73;;;20.10;63.80;;;;;;4644032;30;20499;-81
2022/05/25 12:28:39;;;;;;;0.70;0.70;;;20.00;63.80;;;;;;4656560;30;20066;-79
2022/05/25 12:31:42;;;;;;;1.27;1.00;;;20.10;63.80;;;;;;4657909;30;20168;-83
2022/05/25 12:35:08;;;;;;;1.33;0.90;;;20.10;63.30;;;;;;4681033;30;20049;-81
2022/05/25 12:37:43;;;;;;;1.05;0.90;;;20.10;63.60;;;;;;4637063;30;20101;-79
2022/05/25 12:40:16;;;;;;;1.15;1.08;;;20.00;63.60;;;;;;4633734;30;20047;-80
2022/05/25 12:42:45;;;;;;;0.85;0.70;;;19.80;63.40;;;;;;4628556;30;20539;-78
2022/05/25 12:48:53;;;;;;;0.82;0.50;;;19.80;63.60;;;;;;4646261;30;20458;-82
2022/05/25 12:54:45;;;;;;;0.95;0.57;;;19.50;64.00;;;;;;4714723;30;20060;-79
2022/05/25 13:08:48;;;;;;;0.40;0.40;;;18.90;65.20;;;;;;4712965;30;20064;-84
2022/05/25 13:14:59;;;;;;;0.70;0.30;;;18.70;65.50;;;;;;4714505;30;20095;-78
2022/05/25 13:17:43;;;;;;;1.17;0.30;;;18.60;65.70;;;;;;4700400;30;20053;-79
2022/05/25 13:20:15;;;;;;;0.40;0.40;;;18.60;65.80;;;;;;4700572;30;20041;-77
2022/05/25 13:22:41;;;;;;;0.43;0.43;;;18.60;65.80;;;;;;4714589;30;20057;-77
2022/05/25 13:25:26;;;;;;;0.57;0.45;;;18.60;65.70;;;;;;4745747;30;20398;-79
2022/05/25 13:28:10;;;;;;;0.77;0.45;;;18.70;65.60;;;;;;4783408;29;20199;-78
2022/05/25 13:31:15;;;;;;;0.30;0.30;;;18.60;65.50;;;;;;4801091;29;20064;-79
2022/05/25 13:33:45;;;;;;;0.40;0.40;;;18.80;65.30;;;;;;4847626;29;20056;-77
2022/05/25 13:36:21;;;;;;;0.40;0.40;;;19.00;64.70;;;;;;4857895;29;20090;-78
2022/05/25 13:38:54;;;;;;;0.73;0.63;;;19.30;64.20;;;;;;4843547;29;20041;-78
2022/05/25 13:41:23;;;;;;;0.80;0.43;;;19.40;63.80;;;;;;4831886;29;20080;-78
2022/05/25 13:44:07;;;;;;;0.60;0.30;;;19.50;63.40;;;;;;4895604;29;20047;-82
2022/05/25 13:46:54;;;;;;;0.32;0.32;;;19.70;63.10;;;;;;4879589;29;20098;-82
2022/05/25 13:49:27;;;;;;;0.75;0.40;;;19.80;62.90;;;;;;4988033;28;20042;-80
2022/05/25 13:52:24;;;;;;;0.40;0.40;;;19.80;62.80;;;;;;4975141;28;20441;-79
2022/05/25 13:54:55;;;;;;;0.77;0.50;;;19.60;62.80;;;;;;4975839;28;20116;-79
2022/05/25 13:57:31;;;;;;;0.80;0.52;;;19.50;63.20;;;;;;4975137;28;20536;-78
2022/05/25 14:00:10;;;;;;;0.95;0.40;;;19.40;63.40;;;;;;4974344;28;20045;-79
2022/05/25 14:02:55;;;;;;;1.13;0.52;;;19.30;64.20;;;;;;4944546;28;20038;-79
2022/05/25 14:05:39;;;;;;;0.47;0.47;;;19.20;63.40;;;;;;4938811;28;20042;-76
2022/05/25 14:10:54;;;;;;;0.52;0.52;;;19.30;63.50;;;;;;4972341;28;20043;-76
2022/05/25 14:11:31;;;;;;;0.50;0.50;;;19.20;63.40;;;;;;4931539;29;20220;-77
2022/05/25 14:13:57;;;;;;;0.90;0.40;;;19.10;63.40;;;;;;4918141;29;20505;-77
2022/05/25 14:16:28;;;;;;;0.75;0.40;;;19.20;63.50;;;;;;4932475;29;20047;-79
2022/05/25 14:18:57;;;;;;;0.55;0.50;;;19.30;63.20;;;;;;4900951;29;20047;-77
2022/05/25 14:21:42;;;;;;;0.40;0.40;;;19.40;63.00;;;;;;4934637;29;20078;-80
2022/05/25 14:24:33;;;;;;;0.47;0.47;;;19.60;62.70;;;;;;4951699;29;20039;-77
2022/05/25 14:27:10;;;;;;;0.40;0.40;;;19.50;62.50;;;;;;4906636;29;20042;-76
2022/05/25 14:29:39;;;;;;;0.75;0.50;;;19.50;62.50;;;;;;4943482;28;20047;-78
2022/05/25 14:32:26;;;;;;;1.08;0.57;;;19.40;62.30;;;;;;4954715;28;20051;-77
2022/05/25 14:35:01;;;;;;;0.50;0.50;;;19.30;62.40;;;;;;4971006;28;20047;-79